sensor_id;sensor_type;location;lat;lon;timestamp;P1;durP1;ratioP1;P2;durP2;ratioP2
31224;SDS011;17847;31.524;74.366;2023-07-29T00:00:33;38.78;;;24.77;;
31224;SDS011;17847;31.524;74.366;2023-07-29T00:03:03;36.92;;;25.65;;
31224;SDS011;17847;31.524;74.366;2023-07-29T00:05:33;34.53;;;23.42;;
31224;SDS011;17847;31.524;74.366;2023-07-29T00:08:02;35.75;;;24.55;;
31224;SDS011;17847;31.524;74.366;2023-07-29T00:10:32;36.60;;;23.65;;
31224;SDS011;17847;31.524;74.366;2023-07-29T00:13:05;35.95;;;24.52;;
31224;SDS011;17847;31.524;74.366;2023-07-29T00:15:35;36.17;;;24.85;;
31224;SDS011;17847;31.524;74.366;2023-07-29T00:18:04;37.90;;;25.13;;
31224;SDS011;17847;31.524;74.366;2023-07-29T00:20:33;35.10;;;24.13;;
31224;SDS011;17847;31.524;74.366;2023-07-29T00:23:02;36.63;;;25.67;;
31224;SDS011;17847;31.524;74.366;2023-07-29T00:25:32;38.50;;;24.50;;
31224;SDS011;17847;31.524;74.366;2023-07-29T00:28:01;36.70;;;24.27;;
31224;SDS011;17847;31.524;74.366;2023-07-29T00:30:30;35.53;;;24.33;;
31224;SDS011;17847;31.524;74.366;2023-07-29T00:33:00;35.58;;;24.42;;
31224;SDS011;17847;31.524;74.366;2023-07-29T00:35:29;32.67;;;22.98;;
31224;SDS011;17847;31.524;74.366;2023-07-29T00:37:59;36.72;;;23.95;;
31224;SDS011;17847;31.524;74.366;2023-07-29T00:40:29;37.58;;;23.80;;
31224;SDS011;17847;31.524;74.366;2023-07-29T00:43:00;34.95;;;23.15;;
31224;SDS011;17847;31.524;74.366;2023-07-29T00:45:29;37.28;;;24.58;;
31224;SDS011;17847;31.524;74.366;2023-07-29T00:48:01;33.10;;;23.15;;
31224;SDS011;17847;31.524;74.366;2023-07-29T00:50:32;34.75;;;24.10;;
31224;SDS011;17847;31.524;74.366;2023-07-29T00:53:02;35.00;;;22.98;;
31224;SDS011;17847;31.524;74.366;2023-07-29T00:55:32;32.10;;;22.83;;
31224;SDS011;17847;31.524;74.366;2023-07-29T00:58:01;35.35;;;23.67;;
31224;SDS011;17847;31.524;74.366;2023-07-29T01:00:32;33.70;;;22.95;;
31224;SDS011;17847;31.524;74.366;2023-07-29T01:03:03;34.75;;;23.38;;
31224;SDS011;17847;31.524;74.366;2023-07-29T01:05:36;31.70;;;22.13;;
31224;SDS011;17847;31.524;74.366;2023-07-29T01:08:25;34.63;;;23.63;;
31224;SDS011;17847;31.524;74.366;2023-07-29T01:11:09;32.25;;;22.48;;
31224;SDS011;17847;31.524;74.366;2023-07-29T01:13:58;32.42;;;23.10;;
31224;SDS011;17847;31.524;74.366;2023-07-29T01:17:03;29.98;;;21.20;;
31224;SDS011;17847;31.524;74.366;2023-07-29T01:22:35;28.75;;;20.88;;
31224;SDS011;17847;31.524;74.366;2023-07-29T01:25:05;29.88;;;20.48;;
31224;SDS011;17847;31.524;74.366;2023-07-29T01:27:35;20.02;;;14.70;;
31224;SDS011;17847;31.524;74.366;2023-07-29T01:30:04;14.48;;;11.38;;
31224;SDS011;17847;31.524;74.366;2023-07-29T01:38:53;8.48;;;6.18;;
31224;SDS011;17847;31.524;74.366;2023-07-29T01:41:06;8.13;;;5.78;;
31224;SDS011;17847;31.524;74.366;2023-07-29T01:43:37;6.80;;;5.15;;
31224;SDS011;17847;31.524;74.366;2023-07-29T01:46:15;9.60;;;5.45;;
31224;SDS011;17847;31.524;74.366;2023-07-29T01:48:47;5.47;;;4.50;;
31224;SDS011;17847;31.524;74.366;2023-07-29T01:51:16;5.32;;;4.70;;
31224;SDS011;17847;31.524;74.366;2023-07-29T01:53:46;5.35;;;4.10;;
31224;SDS011;17847;31.524;74.366;2023-07-29T01:56:15;6.13;;;3.88;;
31224;SDS011;17847;31.524;74.366;2023-07-29T01:58:52;4.82;;;3.72;;
31224;SDS011;17847;31.524;74.366;2023-07-29T02:01:22;8.15;;;3.78;;
31224;SDS011;17847;31.524;74.366;2023-07-29T02:03:51;3.50;;;3.15;;
31224;SDS011;17847;31.524;74.366;2023-07-29T02:06:24;5.90;;;3.80;;
31224;SDS011;17847;31.524;74.366;2023-07-29T02:08:55;5.40;;;3.75;;
31224;SDS011;17847;31.524;74.366;2023-07-29T02:11:24;3.90;;;3.50;;
31224;SDS011;17847;31.524;74.366;2023-07-29T02:13:56;6.15;;;3.72;;
31224;SDS011;17847;31.524;74.366;2023-07-29T02:16:26;4.53;;;3.55;;
31224;SDS011;17847;31.524;74.366;2023-07-29T02:18:56;4.63;;;3.85;;
31224;SDS011;17847;31.524;74.366;2023-07-29T02:21:26;4.13;;;3.42;;
31224;SDS011;17847;31.524;74.366;2023-07-29T02:23:55;5.68;;;4.18;;
31224;SDS011;17847;31.524;74.366;2023-07-29T02:26:25;4.68;;;4.18;;
31224;SDS011;17847;31.524;74.366;2023-07-29T02:28:54;5.30;;;4.10;;
31224;SDS011;17847;31.524;74.366;2023-07-29T02:31:24;5.03;;;4.03;;
31224;SDS011;17847;31.524;74.366;2023-07-29T02:33:53;4.50;;;3.70;;
31224;SDS011;17847;31.524;74.366;2023-07-29T02:36:24;3.95;;;2.72;;
31224;SDS011;17847;31.524;74.366;2023-07-29T02:38:53;3.58;;;2.72;;
31224;SDS011;17847;31.524;74.366;2023-07-29T02:41:23;3.58;;;3.08;;
31224;SDS011;17847;31.524;74.366;2023-07-29T02:43:52;3.38;;;2.85;;
31224;SDS011;17847;31.524;74.366;2023-07-29T02:46:22;4.22;;;2.80;;
31224;SDS011;17847;31.524;74.366;2023-07-29T02:48:51;4.72;;;3.30;;
31224;SDS011;17847;31.524;74.366;2023-07-29T02:51:20;5.45;;;4.15;;
31224;SDS011;17847;31.524;74.366;2023-07-29T02:53:50;5.03;;;3.90;;
31224;SDS011;17847;31.524;74.366;2023-07-29T02:56:19;5.18;;;4.03;;
31224;SDS011;17847;31.524;74.366;2023-07-29T02:58:49;5.22;;;3.97;;
31224;SDS011;17847;31.524;74.366;2023-07-29T03:01:20;4.57;;;3.90;;
31224;SDS011;17847;31.524;74.366;2023-07-29T03:03:49;4.78;;;3.25;;
31224;SDS011;17847;31.524;74.366;2023-07-29T03:06:18;5.25;;;4.00;;
31224;SDS011;17847;31.524;74.366;2023-07-29T03:08:48;5.28;;;3.80;;
31224;SDS011;17847;31.524;74.366;2023-07-29T03:11:17;6.40;;;4.38;;
31224;SDS011;17847;31.524;74.366;2023-07-29T03:13:46;7.45;;;5.20;;
31224;SDS011;17847;31.524;74.366;2023-07-29T03:16:17;6.60;;;4.72;;
31224;SDS011;17847;31.524;74.366;2023-07-29T03:18:52;6.85;;;5.10;;
31224;SDS011;17847;31.524;74.366;2023-07-29T03:21:22;6.03;;;4.88;;
31224;SDS011;17847;31.524;74.366;2023-07-29T03:23:51;7.07;;;4.97;;
31224;SDS011;17847;31.524;74.366;2023-07-29T03:26:21;6.68;;;4.80;;
31224;SDS011;17847;31.524;74.366;2023-07-29T03:28:50;4.82;;;3.90;;
31224;SDS011;17847;31.524;74.366;2023-07-29T03:31:19;7.05;;;4.63;;
31224;SDS011;17847;31.524;74.366;2023-07-29T03:33:49;4.53;;;4.10;;
31224;SDS011;17847;31.524;74.366;2023-07-29T03:36:18;8.40;;;6.00;;
31224;SDS011;17847;31.524;74.366;2023-07-29T03:38:48;9.20;;;5.45;;
31224;SDS011;17847;31.524;74.366;2023-07-29T03:41:18;9.70;;;6.15;;
31224;SDS011;17847;31.524;74.366;2023-07-29T03:43:48;13.02;;;6.75;;
31224;SDS011;17847;31.524;74.366;2023-07-29T03:46:17;10.35;;;6.20;;
31224;SDS011;17847;31.524;74.366;2023-07-29T03:48:50;13.05;;;7.85;;
31224;SDS011;17847;31.524;74.366;2023-07-29T03:51:19;10.57;;;7.13;;
31224;SDS011;17847;31.524;74.366;2023-07-29T03:53:56;9.95;;;6.97;;
31224;SDS011;17847;31.524;74.366;2023-07-29T03:56:26;9.98;;;7.35;;
31224;SDS011;17847;31.524;74.366;2023-07-29T03:59:01;12.35;;;8.50;;
31224;SDS011;17847;31.524;74.366;2023-07-29T04:01:33;12.65;;;7.57;;
31224;SDS011;17847;31.524;74.366;2023-07-29T04:04:03;13.05;;;7.25;;
31224;SDS011;17847;31.524;74.366;2023-07-29T04:06:33;11.73;;;7.25;;
31224;SDS011;17847;31.524;74.366;2023-07-29T04:09:04;13.02;;;7.00;;
31224;SDS011;17847;31.524;74.366;2023-07-29T04:11:33;14.57;;;7.18;;
31224;SDS011;17847;31.524;74.366;2023-07-29T04:14:02;11.10;;;7.38;;
31224;SDS011;17847;31.524;74.366;2023-07-29T04:16:32;8.85;;;7.03;;
31224;SDS011;17847;31.524;74.366;2023-07-29T04:19:03;9.60;;;6.78;;
31224;SDS011;17847;31.524;74.366;2023-07-29T04:21:33;9.88;;;7.47;;
31224;SDS011;17847;31.524;74.366;2023-07-29T04:24:03;9.20;;;7.47;;
31224;SDS011;17847;31.524;74.366;2023-07-29T04:26:32;9.35;;;6.68;;
31224;SDS011;17847;31.524;74.366;2023-07-29T04:29:02;10.77;;;6.70;;
31224;SDS011;17847;31.524;74.366;2023-07-29T04:31:31;8.77;;;6.50;;
31224;SDS011;17847;31.524;74.366;2023-07-29T04:34:01;8.63;;;6.47;;
31224;SDS011;17847;31.524;74.366;2023-07-29T04:36:31;8.15;;;5.80;;
31224;SDS011;17847;31.524;74.366;2023-07-29T04:39:02;9.13;;;6.38;;
31224;SDS011;17847;31.524;74.366;2023-07-29T04:41:31;9.35;;;5.50;;
31224;SDS011;17847;31.524;74.366;2023-07-29T04:44:01;8.60;;;6.30;;
31224;SDS011;17847;31.524;74.366;2023-07-29T04:46:32;11.07;;;7.68;;
31224;SDS011;17847;31.524;74.366;2023-07-29T04:49:03;8.50;;;6.63;;
31224;SDS011;17847;31.524;74.366;2023-07-29T04:51:32;9.77;;;6.95;;
31224;SDS011;17847;31.524;74.366;2023-07-29T04:54:05;8.80;;;6.57;;
31224;SDS011;17847;31.524;74.366;2023-07-29T04:56:34;8.63;;;6.55;;
31224;SDS011;17847;31.524;74.366;2023-07-29T04:59:04;9.05;;;6.40;;
31224;SDS011;17847;31.524;74.366;2023-07-29T05:01:34;8.55;;;6.13;;
31224;SDS011;17847;31.524;74.366;2023-07-29T05:04:05;8.45;;;6.53;;
31224;SDS011;17847;31.524;74.366;2023-07-29T05:06:34;9.00;;;6.50;;
31224;SDS011;17847;31.524;74.366;2023-07-29T05:09:15;7.95;;;6.20;;
31224;SDS011;17847;31.524;74.366;2023-07-29T05:11:46;9.10;;;6.93;;
31224;SDS011;17847;31.524;74.366;2023-07-29T05:14:16;11.45;;;7.45;;
31224;SDS011;17847;31.524;74.366;2023-07-29T05:16:46;10.35;;;7.25;;
31224;SDS011;17847;31.524;74.366;2023-07-29T05:19:16;11.65;;;7.95;;
31224;SDS011;17847;31.524;74.366;2023-07-29T05:21:46;9.98;;;7.63;;
31224;SDS011;17847;31.524;74.366;2023-07-29T05:24:15;8.88;;;7.22;;
31224;SDS011;17847;31.524;74.366;2023-07-29T05:26:44;10.25;;;7.53;;
31224;SDS011;17847;31.524;74.366;2023-07-29T05:29:14;13.40;;;8.50;;
31224;SDS011;17847;31.524;74.366;2023-07-29T05:31:44;11.52;;;8.15;;
31224;SDS011;17847;31.524;74.366;2023-07-29T05:34:13;13.80;;;9.25;;
31224;SDS011;17847;31.524;74.366;2023-07-29T05:36:43;13.13;;;9.70;;
31224;SDS011;17847;31.524;74.366;2023-07-29T05:39:12;11.82;;;8.82;;
31224;SDS011;17847;31.524;74.366;2023-07-29T05:41:42;12.35;;;9.43;;
31224;SDS011;17847;31.524;74.366;2023-07-29T05:44:12;11.00;;;8.23;;
31224;SDS011;17847;31.524;74.366;2023-07-29T05:46:41;14.57;;;9.10;;
31224;SDS011;17847;31.524;74.366;2023-07-29T05:49:11;15.32;;;11.05;;
31224;SDS011;17847;31.524;74.366;2023-07-29T05:51:41;14.57;;;9.30;;
31224;SDS011;17847;31.524;74.366;2023-07-29T05:54:11;13.48;;;8.95;;
31224;SDS011;17847;31.524;74.366;2023-07-29T05:56:40;11.60;;;8.75;;
31224;SDS011;17847;31.524;74.366;2023-07-29T05:59:09;15.52;;;8.70;;
31224;SDS011;17847;31.524;74.366;2023-07-29T06:01:39;11.07;;;8.93;;
31224;SDS011;17847;31.524;74.366;2023-07-29T06:04:09;12.68;;;8.48;;
31224;SDS011;17847;31.524;74.366;2023-07-29T06:06:38;15.30;;;9.65;;
31224;SDS011;17847;31.524;74.366;2023-07-29T06:09:08;13.25;;;7.90;;
31224;SDS011;17847;31.524;74.366;2023-07-29T06:11:37;13.73;;;8.75;;
31224;SDS011;17847;31.524;74.366;2023-07-29T06:14:06;10.85;;;8.38;;
31224;SDS011;17847;31.524;74.366;2023-07-29T06:16:36;12.05;;;8.43;;
31224;SDS011;17847;31.524;74.366;2023-07-29T06:19:07;12.57;;;8.70;;
31224;SDS011;17847;31.524;74.366;2023-07-29T06:21:38;12.18;;;8.95;;
31224;SDS011;17847;31.524;74.366;2023-07-29T06:24:08;10.90;;;8.48;;
31224;SDS011;17847;31.524;74.366;2023-07-29T06:26:37;13.60;;;9.48;;
31224;SDS011;17847;31.524;74.366;2023-07-29T06:29:07;11.13;;;9.20;;
31224;SDS011;17847;31.524;74.366;2023-07-29T06:31:36;12.20;;;8.98;;
31224;SDS011;17847;31.524;74.366;2023-07-29T06:34:06;16.02;;;10.48;;
31224;SDS011;17847;31.524;74.366;2023-07-29T06:36:35;11.50;;;8.73;;
31224;SDS011;17847;31.524;74.366;2023-07-29T06:39:06;9.75;;;7.78;;
31224;SDS011;17847;31.524;74.366;2023-07-29T06:41:35;10.70;;;8.48;;
31224;SDS011;17847;31.524;74.366;2023-07-29T06:44:05;15.57;;;9.45;;
31224;SDS011;17847;31.524;74.366;2023-07-29T06:46:35;14.68;;;10.40;;
31224;SDS011;17847;31.524;74.366;2023-07-29T06:49:05;14.30;;;10.13;;
31224;SDS011;17847;31.524;74.366;2023-07-29T06:51:34;13.73;;;10.52;;
31224;SDS011;17847;31.524;74.366;2023-07-29T06:54:04;15.30;;;11.13;;
31224;SDS011;17847;31.524;74.366;2023-07-29T06:56:33;14.10;;;10.68;;
31224;SDS011;17847;31.524;74.366;2023-07-29T06:59:03;11.52;;;10.15;;
31224;SDS011;17847;31.524;74.366;2023-07-29T07:01:32;14.75;;;10.90;;
31224;SDS011;17847;31.524;74.366;2023-07-29T07:04:02;15.15;;;11.18;;
31224;SDS011;17847;31.524;74.366;2023-07-29T07:06:32;13.90;;;10.88;;
31224;SDS011;17847;31.524;74.366;2023-07-29T07:09:02;16.10;;;11.18;;
31224;SDS011;17847;31.524;74.366;2023-07-29T07:11:32;14.73;;;11.38;;
31224;SDS011;17847;31.524;74.366;2023-07-29T07:14:01;15.05;;;11.90;;
31224;SDS011;17847;31.524;74.366;2023-07-29T07:16:31;17.55;;;11.52;;
31224;SDS011;17847;31.524;74.366;2023-07-29T07:19:01;12.20;;;10.00;;
31224;SDS011;17847;31.524;74.366;2023-07-29T07:21:30;17.67;;;11.05;;
31224;SDS011;17847;31.524;74.366;2023-07-29T07:24:01;13.70;;;11.30;;
31224;SDS011;17847;31.524;74.366;2023-07-29T07:26:30;14.98;;;11.13;;
31224;SDS011;17847;31.524;74.366;2023-07-29T07:28:59;17.33;;;11.32;;
31224;SDS011;17847;31.524;74.366;2023-07-29T07:31:32;15.15;;;10.98;;
31224;SDS011;17847;31.524;74.366;2023-07-29T07:34:04;14.77;;;11.00;;
31224;SDS011;17847;31.524;74.366;2023-07-29T07:36:33;14.07;;;11.50;;
31224;SDS011;17847;31.524;74.366;2023-07-29T07:39:05;14.15;;;10.73;;
31224;SDS011;17847;31.524;74.366;2023-07-29T07:41:34;13.95;;;10.85;;
31224;SDS011;17847;31.524;74.366;2023-07-29T07:44:06;13.85;;;10.48;;
31224;SDS011;17847;31.524;74.366;2023-07-29T07:46:36;13.88;;;10.25;;
31224;SDS011;17847;31.524;74.366;2023-07-29T07:49:06;12.00;;;9.38;;
31224;SDS011;17847;31.524;74.366;2023-07-29T07:51:36;10.38;;;8.85;;
31224;SDS011;17847;31.524;74.366;2023-07-29T07:54:06;11.90;;;9.07;;
31224;SDS011;17847;31.524;74.366;2023-07-29T07:56:35;12.43;;;9.02;;
31224;SDS011;17847;31.524;74.366;2023-07-29T07:59:05;10.80;;;8.82;;
31224;SDS011;17847;31.524;74.366;2023-07-29T08:01:35;9.88;;;7.97;;
31224;SDS011;17847;31.524;74.366;2023-07-29T08:04:06;10.00;;;7.82;;
31224;SDS011;17847;31.524;74.366;2023-07-29T08:06:36;11.10;;;7.97;;
31224;SDS011;17847;31.524;74.366;2023-07-29T08:09:06;10.07;;;8.38;;
31224;SDS011;17847;31.524;74.366;2023-07-29T08:11:35;9.10;;;7.40;;
31224;SDS011;17847;31.524;74.366;2023-07-29T08:14:05;9.93;;;7.53;;
31224;SDS011;17847;31.524;74.366;2023-07-29T08:16:34;9.95;;;7.55;;
31224;SDS011;17847;31.524;74.366;2023-07-29T08:19:05;10.40;;;7.97;;
31224;SDS011;17847;31.524;74.366;2023-07-29T08:21:36;8.77;;;7.32;;
31224;SDS011;17847;31.524;74.366;2023-07-29T08:24:05;8.70;;;6.72;;
31224;SDS011;17847;31.524;74.366;2023-07-29T08:26:36;9.80;;;7.07;;
31224;SDS011;17847;31.524;74.366;2023-07-29T08:29:05;8.20;;;7.13;;
31224;SDS011;17847;31.524;74.366;2023-07-29T08:31:35;11.25;;;7.80;;
31224;SDS011;17847;31.524;74.366;2023-07-29T08:34:05;10.95;;;8.00;;
31224;SDS011;17847;31.524;74.366;2023-07-29T08:36:34;13.07;;;8.50;;
31224;SDS011;17847;31.524;74.366;2023-07-29T08:39:05;9.55;;;8.18;;
31224;SDS011;17847;31.524;74.366;2023-07-29T08:44:36;12.27;;;7.63;;
31224;SDS011;17847;31.524;74.366;2023-07-29T08:47:12;10.90;;;7.90;;
31224;SDS011;17847;31.524;74.366;2023-07-29T08:49:43;8.77;;;7.70;;
31224;SDS011;17847;31.524;74.366;2023-07-29T08:52:15;10.32;;;7.82;;
31224;SDS011;17847;31.524;74.366;2023-07-29T08:54:45;10.48;;;8.60;;
31224;SDS011;17847;31.524;74.366;2023-07-29T08:57:15;10.65;;;8.95;;
31224;SDS011;17847;31.524;74.366;2023-07-29T08:59:46;10.98;;;8.90;;
31224;SDS011;17847;31.524;74.366;2023-07-29T09:02:15;12.70;;;10.00;;
31224;SDS011;17847;31.524;74.366;2023-07-29T09:04:45;12.10;;;9.88;;
31224;SDS011;17847;31.524;74.366;2023-07-29T09:07:14;14.15;;;10.23;;
31224;SDS011;17847;31.524;74.366;2023-07-29T09:09:48;14.75;;;10.60;;
31224;SDS011;17847;31.524;74.366;2023-07-29T09:12:17;15.18;;;10.68;;
31224;SDS011;17847;31.524;74.366;2023-07-29T09:14:51;14.10;;;10.52;;
31224;SDS011;17847;31.524;74.366;2023-07-29T09:17:22;13.52;;;10.27;;
31224;SDS011;17847;31.524;74.366;2023-07-29T09:19:52;11.98;;;9.75;;
31224;SDS011;17847;31.524;74.366;2023-07-29T09:22:22;11.98;;;9.40;;
31224;SDS011;17847;31.524;74.366;2023-07-29T09:24:54;11.68;;;8.95;;
31224;SDS011;17847;31.524;74.366;2023-07-29T09:27:27;14.32;;;8.77;;
31224;SDS011;17847;31.524;74.366;2023-07-29T09:30:00;13.20;;;10.02;;
31224;SDS011;17847;31.524;74.366;2023-07-29T09:32:31;11.13;;;8.32;;
31224;SDS011;17847;31.524;74.366;2023-07-29T09:35:01;12.90;;;9.75;;
31224;SDS011;17847;31.524;74.366;2023-07-29T09:37:31;13.70;;;10.43;;
31224;SDS011;17847;31.524;74.366;2023-07-29T09:40:01;11.50;;;9.38;;
31224;SDS011;17847;31.524;74.366;2023-07-29T09:42:31;15.63;;;11.05;;
31224;SDS011;17847;31.524;74.366;2023-07-29T09:45:02;15.70;;;11.20;;
31224;SDS011;17847;31.524;74.366;2023-07-29T09:47:31;16.00;;;12.10;;
31224;SDS011;17847;31.524;74.366;2023-07-29T09:50:01;15.38;;;11.75;;
31224;SDS011;17847;31.524;74.366;2023-07-29T09:52:30;17.92;;;13.13;;
31224;SDS011;17847;31.524;74.366;2023-07-29T09:55:00;18.00;;;13.75;;
31224;SDS011;17847;31.524;74.366;2023-07-29T09:57:29;15.73;;;12.82;;
31224;SDS011;17847;31.524;74.366;2023-07-29T10:00:00;14.65;;;11.55;;
31224;SDS011;17847;31.524;74.366;2023-07-29T10:02:35;17.00;;;12.25;;
31224;SDS011;17847;31.524;74.366;2023-07-29T10:05:07;15.02;;;12.32;;
31224;SDS011;17847;31.524;74.366;2023-07-29T10:07:39;17.08;;;12.15;;
31224;SDS011;17847;31.524;74.366;2023-07-29T10:10:09;19.55;;;14.00;;
31224;SDS011;17847;31.524;74.366;2023-07-29T10:12:40;19.63;;;15.68;;
31224;SDS011;17847;31.524;74.366;2023-07-29T10:15:11;18.17;;;14.73;;
31224;SDS011;17847;31.524;74.366;2023-07-29T10:17:40;17.45;;;13.85;;
31224;SDS011;17847;31.524;74.366;2023-07-29T10:20:10;18.25;;;13.48;;
31224;SDS011;17847;31.524;74.366;2023-07-29T10:22:41;15.98;;;12.27;;
31224;SDS011;17847;31.524;74.366;2023-07-29T10:27:48;16.35;;;11.43;;
31224;SDS011;17847;31.524;74.366;2023-07-29T10:30:22;14.93;;;11.48;;
31224;SDS011;17847;31.524;74.366;2023-07-29T10:32:53;12.38;;;10.20;;
31224;SDS011;17847;31.524;74.366;2023-07-29T10:37:56;13.32;;;9.35;;
31224;SDS011;17847;31.524;74.366;2023-07-29T10:40:26;13.57;;;10.18;;
31224;SDS011;17847;31.524;74.366;2023-07-29T10:43:11;12.20;;;9.88;;
31224;SDS011;17847;31.524;74.366;2023-07-29T10:45:43;13.27;;;9.05;;
31224;SDS011;17847;31.524;74.366;2023-07-29T10:48:13;12.15;;;9.50;;
31224;SDS011;17847;31.524;74.366;2023-07-29T10:54:11;14.48;;;11.18;;
31224;SDS011;17847;31.524;74.366;2023-07-29T10:56:48;14.40;;;10.93;;
31224;SDS011;17847;31.524;74.366;2023-07-29T11:01:52;14.40;;;11.93;;
31224;SDS011;17847;31.524;74.366;2023-07-29T11:04:31;17.90;;;11.10;;
31224;SDS011;17847;31.524;74.366;2023-07-29T11:15:20;15.25;;;10.80;;
31224;SDS011;17847;31.524;74.366;2023-07-29T11:17:55;13.55;;;10.70;;
31224;SDS011;17847;31.524;74.366;2023-07-29T11:20:26;12.80;;;10.13;;
31224;SDS011;17847;31.524;74.366;2023-07-29T11:22:58;14.65;;;10.90;;
31224;SDS011;17847;31.524;74.366;2023-07-29T11:25:29;12.05;;;10.07;;
31224;SDS011;17847;31.524;74.366;2023-07-29T11:28:01;13.47;;;10.07;;
31224;SDS011;17847;31.524;74.366;2023-07-29T11:30:34;12.70;;;10.60;;
31224;SDS011;17847;31.524;74.366;2023-07-29T11:33:07;13.13;;;9.45;;
31224;SDS011;17847;31.524;74.366;2023-07-29T11:35:38;12.43;;;10.07;;
31224;SDS011;17847;31.524;74.366;2023-07-29T11:38:07;11.80;;;9.55;;
31224;SDS011;17847;31.524;74.366;2023-07-29T11:40:37;11.57;;;9.50;;
31224;SDS011;17847;31.524;74.366;2023-07-29T11:43:07;12.25;;;10.30;;
31224;SDS011;17847;31.524;74.366;2023-07-29T11:45:37;11.32;;;9.13;;
31224;SDS011;17847;31.524;74.366;2023-07-29T11:48:28;13.63;;;10.35;;
31224;SDS011;17847;31.524;74.366;2023-07-29T11:51:02;13.23;;;9.30;;
31224;SDS011;17847;31.524;74.366;2023-07-29T11:53:32;11.88;;;8.90;;
31224;SDS011;17847;31.524;74.366;2023-07-29T11:56:02;11.65;;;9.95;;
31224;SDS011;17847;31.524;74.366;2023-07-29T11:58:33;12.18;;;9.90;;
31224;SDS011;17847;31.524;74.366;2023-07-29T12:01:03;14.32;;;10.05;;
31224;SDS011;17847;31.524;74.366;2023-07-29T12:03:33;12.07;;;9.80;;
31224;SDS011;17847;31.524;74.366;2023-07-29T12:06:03;12.45;;;9.82;;
31224;SDS011;17847;31.524;74.366;2023-07-29T12:08:32;12.27;;;10.27;;
31224;SDS011;17847;31.524;74.366;2023-07-29T12:11:02;12.93;;;9.13;;
31224;SDS011;17847;31.524;74.366;2023-07-29T12:13:32;12.52;;;9.90;;
31224;SDS011;17847;31.524;74.366;2023-07-29T12:16:03;13.43;;;9.35;;
31224;SDS011;17847;31.524;74.366;2023-07-29T12:18:34;12.75;;;10.10;;
31224;SDS011;17847;31.524;74.366;2023-07-29T12:21:05;11.88;;;9.27;;
31224;SDS011;17847;31.524;74.366;2023-07-29T12:23:34;17.20;;;10.18;;
31224;SDS011;17847;31.524;74.366;2023-07-29T12:26:05;12.85;;;9.70;;
31224;SDS011;17847;31.524;74.366;2023-07-29T12:28:35;13.90;;;10.75;;
31224;SDS011;17847;31.524;74.366;2023-07-29T12:31:07;13.20;;;10.07;;
31224;SDS011;17847;31.524;74.366;2023-07-29T12:33:37;13.88;;;10.23;;
31224;SDS011;17847;31.524;74.366;2023-07-29T12:36:08;15.65;;;10.48;;
31224;SDS011;17847;31.524;74.366;2023-07-29T12:38:39;13.95;;;11.02;;
31224;SDS011;17847;31.524;74.366;2023-07-29T12:41:12;15.55;;;10.45;;
31224;SDS011;17847;31.524;74.366;2023-07-29T12:43:42;12.48;;;10.52;;
31224;SDS011;17847;31.524;74.366;2023-07-29T12:46:12;17.30;;;11.10;;
31224;SDS011;17847;31.524;74.366;2023-07-29T12:48:41;12.85;;;10.05;;
31224;SDS011;17847;31.524;74.366;2023-07-29T12:51:10;14.82;;;10.65;;
31224;SDS011;17847;31.524;74.366;2023-07-29T12:53:40;15.10;;;11.10;;
31224;SDS011;17847;31.524;74.366;2023-07-29T12:56:10;13.52;;;11.02;;
31224;SDS011;17847;31.524;74.366;2023-07-29T12:58:39;17.58;;;11.18;;
31224;SDS011;17847;31.524;74.366;2023-07-29T13:01:09;14.63;;;11.60;;
31224;SDS011;17847;31.524;74.366;2023-07-29T13:06:11;15.50;;;11.10;;
31224;SDS011;17847;31.524;74.366;2023-07-29T13:08:41;12.23;;;8.90;;
31224;SDS011;17847;31.524;74.366;2023-07-29T13:11:10;9.85;;;8.02;;
31224;SDS011;17847;31.524;74.366;2023-07-29T13:13:41;10.52;;;7.70;;
31224;SDS011;17847;31.524;74.366;2023-07-29T13:16:10;12.18;;;9.18;;
31224;SDS011;17847;31.524;74.366;2023-07-29T13:18:43;9.55;;;7.47;;
31224;SDS011;17847;31.524;74.366;2023-07-29T13:21:13;12.13;;;10.20;;
31224;SDS011;17847;31.524;74.366;2023-07-29T13:23:42;14.35;;;10.27;;
31224;SDS011;17847;31.524;74.366;2023-07-29T13:26:12;15.02;;;10.00;;
31224;SDS011;17847;31.524;74.366;2023-07-29T13:28:41;16.05;;;11.45;;
31224;SDS011;17847;31.524;74.366;2023-07-29T13:31:11;15.93;;;11.00;;
31224;SDS011;17847;31.524;74.366;2023-07-29T13:33:42;16.02;;;11.63;;
31224;SDS011;17847;31.524;74.366;2023-07-29T13:36:11;14.80;;;12.45;;
31224;SDS011;17847;31.524;74.366;2023-07-29T13:38:41;13.20;;;11.07;;
31224;SDS011;17847;31.524;74.366;2023-07-29T13:41:10;16.13;;;11.50;;
31224;SDS011;17847;31.524;74.366;2023-07-29T13:43:40;14.10;;;11.27;;
31224;SDS011;17847;31.524;74.366;2023-07-29T13:46:09;16.98;;;11.73;;
31224;SDS011;17847;31.524;74.366;2023-07-29T13:48:39;16.20;;;12.02;;
31224;SDS011;17847;31.524;74.366;2023-07-29T13:51:08;15.70;;;11.65;;
31224;SDS011;17847;31.524;74.366;2023-07-29T13:53:37;16.70;;;12.48;;
31224;SDS011;17847;31.524;74.366;2023-07-29T13:56:07;18.92;;;12.02;;
31224;SDS011;17847;31.524;74.366;2023-07-29T13:58:36;15.55;;;11.77;;
31224;SDS011;17847;31.524;74.366;2023-07-29T14:01:05;16.52;;;11.98;;
31224;SDS011;17847;31.524;74.366;2023-07-29T14:03:35;18.23;;;12.25;;
31224;SDS011;17847;31.524;74.366;2023-07-29T14:06:04;16.15;;;12.60;;
31224;SDS011;17847;31.524;74.366;2023-07-29T14:08:34;20.73;;;13.55;;
31224;SDS011;17847;31.524;74.366;2023-07-29T14:11:04;17.67;;;13.27;;
31224;SDS011;17847;31.524;74.366;2023-07-29T14:13:33;16.73;;;13.05;;
31224;SDS011;17847;31.524;74.366;2023-07-29T14:16:03;19.88;;;14.25;;
31224;SDS011;17847;31.524;74.366;2023-07-29T14:18:32;19.05;;;12.75;;
31224;SDS011;17847;31.524;74.366;2023-07-29T14:21:01;17.38;;;12.98;;
31224;SDS011;17847;31.524;74.366;2023-07-29T14:23:31;18.17;;;12.38;;
31224;SDS011;17847;31.524;74.366;2023-07-29T14:26:01;18.08;;;13.10;;
31224;SDS011;17847;31.524;74.366;2023-07-29T14:28:31;22.45;;;14.18;;
31224;SDS011;17847;31.524;74.366;2023-07-29T14:31:01;18.77;;;13.30;;
31224;SDS011;17847;31.524;74.366;2023-07-29T14:33:31;22.67;;;13.30;;
31224;SDS011;17847;31.524;74.366;2023-07-29T14:36:02;19.13;;;14.40;;
31224;SDS011;17847;31.524;74.366;2023-07-29T14:38:32;16.08;;;12.52;;
31224;SDS011;17847;31.524;74.366;2023-07-29T14:41:02;19.20;;;14.32;;
31224;SDS011;17847;31.524;74.366;2023-07-29T14:43:33;17.20;;;13.43;;
31224;SDS011;17847;31.524;74.366;2023-07-29T14:46:03;24.70;;;14.65;;
31224;SDS011;17847;31.524;74.366;2023-07-29T14:48:34;25.50;;;14.23;;
31224;SDS011;17847;31.524;74.366;2023-07-29T14:51:05;20.67;;;14.48;;
31224;SDS011;17847;31.524;74.366;2023-07-29T14:53:36;20.02;;;14.27;;
31224;SDS011;17847;31.524;74.366;2023-07-29T14:56:06;25.35;;;14.43;;
31224;SDS011;17847;31.524;74.366;2023-07-29T14:58:35;21.25;;;13.68;;
31224;SDS011;17847;31.524;74.366;2023-07-29T15:01:04;25.63;;;14.57;;
31224;SDS011;17847;31.524;74.366;2023-07-29T15:03:34;19.02;;;13.82;;
31224;SDS011;17847;31.524;74.366;2023-07-29T15:06:04;20.65;;;15.48;;
31224;SDS011;17847;31.524;74.366;2023-07-29T15:08:36;21.88;;;15.10;;
31224;SDS011;17847;31.524;74.366;2023-07-29T15:11:08;20.40;;;14.20;;